createdAt,value
2023-01-07T00:04:39.959Z,101373.00
2023-01-07T00:10:42.291Z,101393.00
2023-01-07T00:16:44.548Z,101380.00
2023-01-07T00:22:46.822Z,101388.00
2023-01-07T00:28:51.282Z,101374.00
2023-01-07T00:34:53.501Z,101362.00
2023-01-07T00:40:56.170Z,101370.00
2023-01-07T00:46:59.683Z,101358.00
2023-01-07T00:53:02.376Z,101362.00
2023-01-07T00:59:04.729Z,101369.00
2023-01-07T01:05:07.771Z,101358.00
2023-01-07T01:11:11.064Z,101358.00
2023-01-07T01:17:13.435Z,101364.00
2023-01-07T01:23:15.585Z,101345.00
2023-01-07T01:29:17.794Z,101341.00
2023-01-07T01:35:20.052Z,101341.00
2023-01-07T01:41:23.712Z,101336.00
2023-01-07T01:48:04.931Z,101321.00
2023-01-07T01:54:12.645Z,101325.00
2023-01-07T02:00:19.422Z,101318.00
2023-01-07T02:06:27.588Z,101324.00
2023-01-07T02:12:55.668Z,101307.00
2023-01-07T02:19:25.345Z,101327.00
2023-01-07T02:26:00.019Z,101342.00
2023-01-07T02:32:21.034Z,101332.00
2023-01-07T02:38:45.231Z,101320.00
2023-01-07T02:44:56.441Z,101321.00
2023-01-07T02:50:58.791Z,101319.00
2023-01-07T02:57:31.076Z,101323.00
2023-01-07T03:03:49.007Z,101322.00
2023-01-07T03:10:00.143Z,101314.00
2023-01-07T03:16:26.052Z,101305.00
2023-01-07T03:22:31.178Z,101297.00
2023-01-07T03:28:37.755Z,101302.00
2023-01-07T03:34:41.260Z,101300.00
2023-01-07T03:40:44.642Z,101301.00
2023-01-07T03:46:46.922Z,101304.00
2023-01-07T03:52:51.365Z,101303.00
2023-01-07T03:58:55.341Z,101296.00
2023-01-07T04:04:58.618Z,101285.00
2023-01-07T04:11:01.456Z,101294.00
2023-01-07T04:17:04.291Z,101292.00
2023-01-07T04:23:06.686Z,101282.00
2023-01-07T04:29:09.187Z,101279.00
2023-01-07T04:35:11.429Z,101298.00
2023-01-07T04:41:14.827Z,101274.00
2023-01-07T04:47:17.159Z,101289.00
2023-01-07T04:53:20.308Z,101279.00
2023-01-07T04:59:23.888Z,101276.00
2023-01-07T05:05:26.341Z,101276.00
2023-01-07T05:11:29.334Z,101291.00
2023-01-07T05:17:33.824Z,101306.00
2023-01-07T05:23:37.340Z,101290.00
2023-01-07T05:29:39.739Z,101285.00
2023-01-07T05:35:41.921Z,101266.00
2023-01-07T05:41:44.200Z,101267.00
2023-01-07T05:47:46.736Z,101257.00
2023-01-07T05:53:49.270Z,101256.00
2023-01-07T05:59:51.510Z,101264.00
2023-01-07T06:05:53.805Z,101271.00
2023-01-07T06:11:56.130Z,101267.00
2023-01-07T06:17:58.302Z,101288.00
2023-01-07T06:24:00.524Z,101282.00
2023-01-07T06:30:04.742Z,101287.00
2023-01-07T06:36:08.430Z,101259.00
2023-01-07T06:42:11.053Z,101278.00
2023-01-07T06:48:13.246Z,101289.00
2023-01-07T06:54:15.597Z,101298.00
2023-01-07T07:00:18.006Z,101286.00
2023-01-07T07:06:20.183Z,101306.00
2023-01-07T07:12:22.832Z,101320.00
2023-01-07T07:18:25.115Z,101320.00
2023-01-07T07:24:27.228Z,101287.00
2023-01-07T07:30:46.569Z,101128.00
2023-01-07T07:36:50.244Z,101142.00
2023-01-07T07:43:11.327Z,101197.00
2023-01-07T07:49:14.495Z,101220.00
2023-01-07T07:55:20.772Z,101168.00
2023-01-07T08:01:28.360Z,101160.00
2023-01-07T08:07:32.247Z,101223.00
2023-01-07T08:13:36.178Z,101221.00
2023-01-07T08:19:38.372Z,101271.00
2023-01-07T08:25:40.679Z,101287.00
2023-01-07T08:31:43.124Z,101281.00
2023-01-07T08:37:45.741Z,101180.00
2023-01-07T08:43:48.204Z,101237.00
2023-01-07T08:49:50.402Z,101291.00
2023-01-07T08:55:52.610Z,101302.00
2023-01-07T09:01:55.278Z,101313.00
2023-01-07T09:07:58.198Z,101307.00
2023-01-07T09:14:00.523Z,101307.00
2023-01-07T09:20:04.155Z,101281.00
2023-01-07T09:26:06.686Z,101280.00
2023-01-07T09:32:09.136Z,101275.00
2023-01-07T09:38:11.407Z,101261.00
2023-01-07T09:44:25.896Z,101235.00
2023-01-07T09:50:45.138Z,101236.00
2023-01-07T09:56:47.703Z,101216.00
2023-01-07T10:03:11.564Z,101219.00
2023-01-07T10:09:38.420Z,101226.00
2023-01-07T10:15:40.881Z,101214.00
2023-01-07T10:22:03.172Z,101199.00
2023-01-07T10:28:10.549Z,101203.00
2023-01-07T10:34:31.703Z,101201.00
2023-01-07T10:40:42.178Z,101196.00
2023-01-07T10:47:08.104Z,101189.00
2023-01-07T10:53:31.888Z,101181.00
2023-01-07T10:59:34.744Z,101182.00
2023-01-07T11:05:37.933Z,101173.00
2023-01-07T11:11:41.322Z,101176.00
2023-01-07T11:17:56.585Z,101165.00
2023-01-07T11:23:59.570Z,101157.00
2023-01-07T11:30:16.692Z,101153.00
2023-01-07T11:36:19.075Z,101142.00
2023-01-07T11:42:39.358Z,101135.00
2023-01-07T11:48:50.312Z,101139.00
2023-01-07T11:54:52.724Z,101139.00
2023-01-07T12:01:22.282Z,101054.00
2023-01-07T12:07:25.467Z,101143.00
2023-01-07T12:13:28.819Z,101148.00
2023-01-07T12:20:04.511Z,101141.00
2023-01-07T12:26:19.096Z,101135.00
2023-01-07T12:32:57.563Z,101126.00
2023-01-07T12:39:04.226Z,101131.00
2023-01-07T12:45:14.977Z,101124.00
2023-01-07T12:51:31.678Z,101118.00
2023-01-07T12:57:37.654Z,101121.00
2023-01-07T13:04:03.230Z,101128.00
2023-01-07T13:32:04.451Z,101154.00
2023-01-07T13:38:39.964Z,101153.00
2023-01-07T13:45:11.619Z,101151.00
2023-01-07T13:51:14.286Z,101159.00
2023-01-07T13:57:31.329Z,101161.00
2023-01-07T14:03:39.653Z,101154.00
2023-01-07T14:09:41.874Z,101149.00
2023-01-07T14:15:59.780Z,101147.00
2023-01-07T14:22:31.976Z,101157.00
2023-01-07T14:28:36.981Z,101153.00
2023-01-07T14:34:39.407Z,101157.00
2023-01-07T14:40:49.058Z,101172.00
2023-01-07T14:46:51.797Z,101166.00
2023-01-07T14:52:59.829Z,101180.00
2023-01-07T14:59:20.179Z,101179.00
2023-01-07T15:05:47.233Z,101177.00
2023-01-07T15:12:10.305Z,101172.00
2023-01-07T15:18:13.239Z,101176.00
2023-01-07T15:24:40.714Z,101183.00
2023-01-07T15:30:57.328Z,101179.00
2023-01-07T15:37:03.240Z,101192.00
2023-01-07T15:43:06.580Z,101190.00
2023-01-07T15:49:11.548Z,101187.00
2023-01-07T15:55:30.580Z,101180.00
2023-01-07T16:01:32.847Z,101184.00
2023-01-07T16:07:50.091Z,101191.00
2023-01-07T16:14:19.921Z,101197.00
2023-01-07T16:20:35.598Z,101202.00
2023-01-07T16:26:41.523Z,101196.00
2023-01-07T16:32:45.622Z,101205.00
2023-01-07T16:38:50.400Z,101211.00
2023-01-07T16:44:55.699Z,101216.00
2023-01-07T16:50:57.810Z,101221.00
2023-01-07T16:57:02.826Z,101217.00
2023-01-07T17:03:05.157Z,101211.00
2023-01-07T17:09:20.896Z,101214.00
2023-01-07T17:15:32.663Z,101216.00
2023-01-07T17:21:42.511Z,101210.00
2023-01-07T17:28:00.755Z,101212.00
2023-01-07T17:34:02.842Z,101211.00
2023-01-07T17:40:05.968Z,101213.00
2023-01-07T17:46:11.903Z,101187.00
2023-01-07T17:52:14.269Z,101211.00
2023-01-07T17:58:29.092Z,101212.00
2023-01-07T18:04:31.445Z,101217.00
2023-01-07T18:10:53.569Z,101218.00
2023-01-07T18:16:56.008Z,101219.00
2023-01-07T18:22:58.370Z,101232.00
2023-01-07T18:29:00.496Z,101233.00
2023-01-07T18:35:02.909Z,101222.00
2023-01-07T18:41:05.362Z,101246.00
2023-01-07T18:47:07.448Z,101238.00
2023-01-07T18:53:09.924Z,101249.00
2023-01-07T18:59:13.096Z,101239.00
2023-01-07T19:05:15.290Z,101243.00
2023-01-07T19:11:17.364Z,101240.00
2023-01-07T19:17:19.667Z,101231.00
2023-01-07T19:23:22.091Z,101231.00
2023-01-07T19:29:24.321Z,101232.00
2023-01-07T19:35:27.203Z,101235.00
2023-01-07T19:41:29.963Z,101229.00
2023-01-07T19:47:32.808Z,101218.00
2023-01-07T19:53:35.855Z,101232.00
2023-01-07T19:59:37.997Z,101238.00
2023-01-07T20:05:40.216Z,101228.00
2023-01-07T20:11:45.238Z,101242.00
2023-01-07T20:17:47.461Z,101245.00
2023-01-07T20:23:49.896Z,101229.00
2023-01-07T20:29:52.311Z,101226.00
2023-01-07T20:36:09.579Z,101227.00
2023-01-07T20:42:11.836Z,101232.00
2023-01-07T20:48:15.715Z,101232.00
2023-01-07T20:54:18.094Z,101225.00
2023-01-07T21:00:20.511Z,101238.00
2023-01-07T21:06:22.951Z,101233.00
2023-01-07T21:12:25.488Z,101225.00
2023-01-07T21:18:27.799Z,101242.00
2023-01-07T21:24:30.368Z,101248.00
2023-01-07T21:30:33.041Z,101236.00
2023-01-07T21:36:35.015Z,101237.00
2023-01-07T21:42:37.424Z,101237.00
2023-01-07T21:48:41.738Z,101232.00
2023-01-07T21:54:44.078Z,101223.00
2023-01-07T22:00:50.702Z,101217.00
2023-01-07T22:06:53.427Z,101220.00
2023-01-07T22:12:55.432Z,101226.00
2023-01-07T22:18:58.042Z,101219.00
2023-01-07T22:25:00.117Z,101221.00
2023-01-07T22:31:15.982Z,101219.00
2023-01-07T22:37:21.157Z,101214.00
2023-01-07T22:43:25.116Z,101209.00
2023-01-07T22:49:29.312Z,101203.00
2023-01-07T22:55:32.985Z,101211.00
2023-01-07T23:01:35.768Z,101187.00
2023-01-07T23:07:37.885Z,101197.00
2023-01-07T23:13:40.038Z,101190.00
2023-01-07T23:19:42.185Z,101187.00
2023-01-07T23:25:48.744Z,101185.00
2023-01-07T23:31:51.491Z,101182.00
2023-01-07T23:37:53.593Z,101178.00
2023-01-07T23:43:56.149Z,101186.00
2023-01-07T23:49:58.047Z,101179.00
2023-01-07T23:56:00.219Z,101183.00
